Time;durP1;ratioP1;P1;durP2;ratioP2;P2;SDS_P1;SDS_P2;PMS_P1;PMS_P2;Temp;Humidity;BMP_temperature;BMP_pressure;BME280_temperature;BME280_humidity;BME280_pressure;Samples;Min_cycle;Max_cycle;Signal;HPM_P1;HPM_P2
2021/12/20 00:01:40;;;;;;;10.25;3.88;;;7.10;99.90;;;;;;6157610;23;20013;-69
2021/12/20 00:04:07;;;;;;;11.05;4.55;;;7.10;99.90;;;;;;6157440;23;20017;-69
2021/12/20 00:06:34;;;;;;;9.73;3.95;;;7.00;99.90;;;;;;6157549;23;20024;-69
2021/12/20 00:09:01;;;;;;;11.18;3.55;;;7.00;99.90;;;;;;6157604;23;20110;-69
2021/12/20 00:11:27;;;;;;;8.15;3.30;;;7.00;99.90;;;;;;6158122;23;20010;-69
2021/12/20 00:13:54;;;;;;;10.27;4.15;;;7.00;99.90;;;;;;6157617;23;20092;-69
2021/12/20 00:16:20;;;;;;;12.52;4.05;;;7.00;99.90;;;;;;6158073;23;20001;-69
2021/12/20 00:18:47;;;;;;;8.52;3.20;;;6.90;99.90;;;;;;6157549;23;20013;-69
2021/12/20 00:21:14;;;;;;;8.73;3.70;;;6.90;99.90;;;;;;6157613;23;20021;-69
2021/12/20 00:23:41;;;;;;;10.43;3.38;;;6.90;99.90;;;;;;6158150;23;20392;-69
2021/12/20 00:26:09;;;;;;;7.82;3.38;;;6.80;99.90;;;;;;6157772;23;20005;-69
2021/12/20 00:28:37;;;;;;;6.82;3.90;;;6.80;99.90;;;;;;6155689;23;20017;-69
2021/12/20 00:31:04;;;;;;;5.35;3.22;;;6.80;99.90;;;;;;6157575;23;20317;-69
2021/12/20 00:33:33;;;;;;;8.52;3.78;;;6.80;99.90;;;;;;6157833;23;20032;-69
2021/12/20 00:36:03;;;;;;;8.00;3.30;;;6.80;99.90;;;;;;6157978;23;20471;-69
2021/12/20 00:41:14;;;;;;;8.57;3.35;;;6.70;99.90;;;;;;6157461;23;20013;-69
2021/12/20 00:43:41;;;;;;;10.13;3.33;;;6.60;99.90;;;;;;6157489;23;20010;-69
2021/12/20 00:46:07;;;;;;;8.02;3.58;;;6.60;99.90;;;;;;6157677;23;20005;-69
2021/12/20 00:48:34;;;;;;;13.32;4.32;;;6.60;99.90;;;;;;6157375;23;20013;-69
2021/12/20 00:51:01;;;;;;;6.43;3.78;;;6.60;99.90;;;;;;6157804;23;20420;-69
2021/12/20 00:53:27;;;;;;;11.18;3.45;;;6.60;99.90;;;;;;6157341;23;20013;-69
2021/12/20 00:55:54;;;;;;;9.65;3.70;;;6.60;99.90;;;;;;6157659;23;20447;-69
2021/12/20 00:58:20;;;;;;;9.27;3.95;;;6.60;99.90;;;;;;6157438;23;20017;-69
2021/12/20 01:00:51;;;;;;;8.40;4.20;;;6.50;99.90;;;;;;6157196;23;20013;-69
2021/12/20 01:03:20;;;;;;;11.20;4.10;;;6.50;99.90;;;;;;6157240;23;20005;-69
2021/12/20 01:05:47;;;;;;;12.48;3.95;;;6.50;99.90;;;;;;6155864;23;20013;-69
2021/12/20 01:08:15;;;;;;;15.18;4.43;;;6.50;99.90;;;;;;6157697;23;20327;-69
2021/12/20 01:10:49;;;;;;;12.55;5.38;;;6.50;99.90;;;;;;6157536;23;20005;-69
2021/12/20 01:13:19;;;;;;;14.60;4.18;;;6.40;99.90;;;;;;6157314;23;20006;-69
2021/12/20 01:15:50;;;;;;;12.20;4.50;;;6.40;99.90;;;;;;6157203;23;20006;-69
2021/12/20 01:18:19;;;;;;;10.95;4.07;;;6.40;99.90;;;;;;6157141;23;20068;-69
2021/12/20 01:20:46;;;;;;;11.90;4.43;;;6.40;99.90;;;;;;6157415;23;20017;-69
2021/12/20 01:23:14;;;;;;;10.25;4.28;;;6.40;99.90;;;;;;6156967;23;20002;-69
2021/12/20 01:25:41;;;;;;;8.57;3.88;;;6.40;99.90;;;;;;6157020;23;20403;-69
2021/12/20 01:28:09;;;;;;;8.77;3.92;;;6.30;99.90;;;;;;6156790;23;20375;-69
2021/12/20 01:30:37;;;;;;;11.75;4.30;;;6.40;99.90;;;;;;6157433;23;20364;-69
2021/12/20 01:33:08;;;;;;;9.32;4.13;;;6.30;99.90;;;;;;6157273;23;20464;-69
2021/12/20 01:35:36;;;;;;;10.48;3.53;;;6.30;99.90;;;;;;6130957;23;20076;-69
2021/12/20 01:38:05;;;;;;;9.63;4.28;;;6.30;99.90;;;;;;6156816;23;20005;-69
2021/12/20 01:40:31;;;;;;;7.65;2.92;;;6.30;99.90;;;;;;6156834;23;20325;-69
2021/12/20 01:42:58;;;;;;;11.80;3.20;;;6.30;99.90;;;;;;6156866;23;20009;-69
2021/12/20 01:45:28;;;;;;;8.30;3.50;;;6.30;99.90;;;;;;6156956;23;20009;-69
2021/12/20 01:48:08;;;;;;;8.63;3.60;;;6.30;99.90;;;;;;6156980;23;20002;-69
2021/12/20 01:51:33;;;;;;;7.68;3.53;;;6.30;99.90;;;;;;6156901;23;20076;-69
2021/12/20 01:53:29;;;;;;;10.00;3.08;;;6.30;99.90;;;;;;6152348;23;20013;-69
2021/12/20 01:55:57;;;;;;;7.35;3.28;;;6.30;99.90;;;;;;6156686;23;20002;-69
2021/12/20 01:58:25;;;;;;;8.73;3.53;;;6.30;99.90;;;;;;6156807;23;20442;-68
2021/12/20 02:03:41;;;;;;;7.25;3.08;;;6.30;99.90;;;;;;6156695;23;20435;-69
2021/12/20 02:06:18;;;;;;;6.13;3.63;;;6.20;99.90;;;;;;6156785;23;20006;-69
2021/12/20 02:08:47;;;;;;;7.50;3.78;;;6.20;99.90;;;;;;6155136;23;20009;-69
2021/12/20 02:11:14;;;;;;;7.60;3.45;;;6.20;99.90;;;;;;6156938;23;20382;-69
2021/12/20 02:13:41;;;;;;;7.72;4.03;;;6.20;99.90;;;;;;6156987;23;20072;-69
2021/12/20 02:16:09;;;;;;;10.98;4.40;;;6.20;99.90;;;;;;6156587;23;20080;-69
2021/12/20 02:18:36;;;;;;;9.80;3.80;;;6.20;99.90;;;;;;6156868;23;20005;-68
2021/12/20 02:21:09;;;;;;;7.93;4.38;;;6.20;99.90;;;;;;6156465;23;20121;-69
2021/12/20 02:23:36;;;;;;;6.57;3.65;;;6.20;99.90;;;;;;6156570;23;20001;-69
2021/12/20 02:26:07;;;;;;;9.15;3.78;;;6.20;99.90;;;;;;6156864;23;20061;-69
2021/12/20 02:28:41;;;;;;;11.85;3.97;;;6.20;99.90;;;;;;6156873;23;20495;-69
2021/12/20 02:39:22;;;;;;;10.98;3.35;;;6.10;99.90;;;;;;6156173;23;20064;-69
2021/12/20 02:41:49;;;;;;;8.35;3.03;;;6.10;99.90;;;;;;6156812;23;20313;-69
2021/12/20 02:44:18;;;;;;;9.05;3.80;;;6.20;99.90;;;;;;6156655;23;20055;-69
2021/12/20 02:47:05;;;;;;;8.60;3.13;;;6.20;99.90;;;;;;6156146;23;20067;-69
2021/12/20 02:49:36;;;;;;;10.57;3.90;;;6.10;99.90;;;;;;6156646;23;20013;-69
2021/12/20 02:52:08;;;;;;;10.20;3.55;;;6.20;99.90;;;;;;6156310;23;20113;-69
2021/12/20 02:54:36;;;;;;;11.15;4.30;;;6.10;99.90;;;;;;6156317;23;20116;-69
2021/12/20 02:57:04;;;;;;;11.48;4.68;;;6.10;99.90;;;;;;6156252;23;20009;-69
2021/12/20 02:59:31;;;;;;;6.75;3.17;;;6.20;99.90;;;;;;6154561;23;20101;-68
2021/12/20 03:02:06;;;;;;;8.20;3.70;;;6.20;99.90;;;;;;6156142;23;20052;-69
2021/12/20 03:04:34;;;;;;;9.73;3.55;;;6.20;99.90;;;;;;6156184;23;20013;-69
2021/12/20 03:07:08;;;;;;;5.55;3.40;;;6.20;99.90;;;;;;6129630;23;20001;-69
2021/12/20 03:09:41;;;;;;;11.43;4.03;;;6.10;99.90;;;;;;6155447;23;20321;-69
2021/12/20 03:12:13;;;;;;;12.32;4.38;;;6.10;99.90;;;;;;6156107;23;20052;-69
2021/12/20 03:14:43;;;;;;;9.43;4.10;;;6.10;99.90;;;;;;6156073;23;20448;-69
2021/12/20 03:17:11;;;;;;;9.93;4.00;;;6.10;99.90;;;;;;6156037;23;20017;-68
2021/12/20 03:19:38;;;;;;;10.00;3.97;;;6.10;99.90;;;;;;6155996;23;20037;-69
2021/12/20 03:22:07;;;;;;;11.32;4.28;;;6.10;99.90;;;;;;6156072;23;20013;-69
2021/12/20 03:24:34;;;;;;;9.20;3.40;;;6.10;99.90;;;;;;6156130;23;20010;-69
2021/12/20 03:27:00;;;;;;;10.18;4.47;;;6.10;99.90;;;;;;6156088;23;20005;-69
2021/12/20 03:29:27;;;;;;;9.80;4.13;;;6.00;99.90;;;;;;6155798;23;20013;-69
2021/12/20 03:31:54;;;;;;;8.77;3.55;;;6.00;99.90;;;;;;6156935;23;20014;-69
2021/12/20 03:34:20;;;;;;;10.88;3.83;;;6.00;99.90;;;;;;6156506;23;20323;-69
2021/12/20 03:36:47;;;;;;;12.35;3.80;;;6.00;99.90;;;;;;6156120;23;20061;-69
2021/12/20 03:39:14;;;;;;;10.77;4.35;;;6.00;99.90;;;;;;6154462;23;20043;-68
2021/12/20 03:41:42;;;;;;;11.85;4.07;;;5.90;99.90;;;;;;6155938;23;20434;-69
2021/12/20 03:44:09;;;;;;;9.60;4.10;;;5.90;99.90;;;;;;6155929;23;20014;-69
2021/12/20 03:46:36;;;;;;;9.48;4.07;;;5.90;99.90;;;;;;6156407;23;20001;-69
2021/12/20 03:49:04;;;;;;;16.35;5.72;;;6.00;99.90;;;;;;6155901;23;20085;-69
2021/12/20 03:51:30;;;;;;;9.20;3.92;;;5.90;99.90;;;;;;6156030;23;20009;-69
2021/12/20 03:53:57;;;;;;;9.70;3.78;;;5.90;99.90;;;;;;6155952;23;20060;-69
2021/12/20 03:56:24;;;;;;;9.60;4.13;;;5.90;99.90;;;;;;6156338;23;20014;-69
2021/12/20 03:58:50;;;;;;;11.70;3.95;;;5.90;99.90;;;;;;6155909;23;20067;-68
2021/12/20 04:01:17;;;;;;;10.68;4.00;;;5.90;99.90;;;;;;6156251;23;20013;-69
2021/12/20 04:03:44;;;;;;;10.55;3.95;;;5.90;99.90;;;;;;6155839;23;20005;-69
2021/12/20 04:06:13;;;;;;;7.25;3.78;;;5.90;99.90;;;;;;6155955;23;20387;-69
2021/12/20 04:08:41;;;;;;;10.07;3.38;;;5.80;99.90;;;;;;6155711;23;20432;-69
2021/12/20 04:11:08;;;;;;;8.57;3.05;;;5.80;99.90;;;;;;6155927;23;20016;-69
2021/12/20 04:13:36;;;;;;;7.07;3.60;;;5.90;99.90;;;;;;6156263;23;20097;-69
2021/12/20 04:16:03;;;;;;;6.00;3.15;;;5.90;99.90;;;;;;6155729;23;20124;-69
2021/12/20 04:18:30;;;;;;;8.45;3.60;;;5.90;99.90;;;;;;6155937;23;20017;-69
2021/12/20 04:20:57;;;;;;;7.25;3.30;;;5.80;99.90;;;;;;6155859;23;20021;-69
2021/12/20 04:23:33;;;;;;;10.85;3.67;;;5.90;99.90;;;;;;6158105;23;20009;-69
2021/12/20 04:26:00;;;;;;;7.53;3.80;;;5.90;99.90;;;;;;6157522;23;20332;-69
2021/12/20 04:28:30;;;;;;;9.20;4.07;;;5.80;99.90;;;;;;6157646;23;20045;-69
2021/12/20 04:30:56;;;;;;;7.32;3.58;;;5.80;99.90;;;;;;6157567;23;20025;-68
2021/12/20 04:33:23;;;;;;;12.95;4.00;;;5.80;99.90;;;;;;6157608;23;20407;-68
2021/12/20 04:35:50;;;;;;;12.23;4.00;;;5.90;99.90;;;;;;6157764;23;20060;-68
2021/12/20 04:38:17;;;;;;;10.43;3.67;;;5.90;99.90;;;;;;6157314;23;20014;-68
2021/12/20 04:40:44;;;;;;;7.03;3.05;;;5.90;99.90;;;;;;6157485;23;20018;-68
2021/12/20 04:43:11;;;;;;;14.65;4.03;;;5.90;99.90;;;;;;6157663;23;20033;-68
2021/12/20 04:45:38;;;;;;;8.35;3.55;;;5.90;99.90;;;;;;6157444;23;20118;-68
2021/12/20 04:48:09;;;;;;;9.30;3.22;;;5.80;99.90;;;;;;6157419;23;20017;-69
2021/12/20 04:50:36;;;;;;;10.02;4.03;;;5.90;99.90;;;;;;6157785;23;20451;-68
2021/12/20 04:53:03;;;;;;;9.18;3.83;;;5.80;99.90;;;;;;6157362;23;20002;-69
2021/12/20 04:55:31;;;;;;;9.65;3.55;;;5.80;99.90;;;;;;6157419;23;20476;-69
2021/12/20 04:58:09;;;;;;;9.38;3.47;;;5.80;99.90;;;;;;6157295;23;20044;-68
2021/12/20 05:00:45;;;;;;;6.47;2.97;;;5.80;99.90;;;;;;6155718;23;20014;-68
2021/12/20 05:03:12;;;;;;;10.35;3.55;;;5.80;99.90;;;;;;6157459;23;20040;-68
2021/12/20 05:05:39;;;;;;;8.20;3.17;;;5.80;99.90;;;;;;6157373;23;20006;-68
2021/12/20 05:08:06;;;;;;;7.47;4.05;;;5.80;99.90;;;;;;6157204;23;20340;-68
2021/12/20 05:10:34;;;;;;;9.77;4.53;;;5.80;99.90;;;;;;6157143;23;20010;-69
2021/12/20 05:13:05;;;;;;;10.85;4.55;;;5.80;99.90;;;;;;6155654;23;20020;-68
2021/12/20 05:15:32;;;;;;;9.77;3.92;;;5.80;99.90;;;;;;6157186;23;20077;-69
2021/12/20 05:18:00;;;;;;;10.45;4.38;;;5.80;99.90;;;;;;6157139;23;20016;-69
2021/12/20 05:20:27;;;;;;;8.68;4.30;;;5.80;99.90;;;;;;6156929;23;20018;-69
2021/12/20 05:22:56;;;;;;;9.40;3.50;;;5.70;99.90;;;;;;6155976;23;20309;-69
2021/12/20 05:25:24;;;;;;;10.27;3.85;;;5.80;99.90;;;;;;6157080;23;20096;-69
2021/12/20 05:27:51;;;;;;;14.50;4.07;;;5.70;99.90;;;;;;6156646;23;20005;-69
2021/12/20 05:30:18;;;;;;;11.55;4.38;;;5.70;99.90;;;;;;6156950;23;20447;-69
2021/12/20 05:32:45;;;;;;;13.48;4.18;;;5.70;99.90;;;;;;6156625;23;20033;-69
2021/12/20 05:35:14;;;;;;;9.60;3.67;;;5.70;99.90;;;;;;6157375;23;20036;-69
2021/12/20 05:37:41;;;;;;;9.32;3.60;;;5.60;99.90;;;;;;6156934;23;20464;-69
2021/12/20 05:40:11;;;;;;;9.60;3.50;;;5.60;99.90;;;;;;6156921;23;20013;-69
2021/12/20 05:42:37;;;;;;;6.00;2.83;;;5.60;99.90;;;;;;6156942;23;20005;-69
2021/12/20 05:45:06;;;;;;;5.93;2.58;;;5.60;99.90;;;;;;6156854;23;20088;-69
2021/12/20 05:47:32;;;;;;;6.75;2.55;;;5.50;99.90;;;;;;6157247;23;20005;-69
2021/12/20 05:49:58;;;;;;;10.57;3.17;;;5.50;99.90;;;;;;6157248;23;20458;-69
2021/12/20 05:52:25;;;;;;;7.95;2.92;;;5.60;99.90;;;;;;6156865;23;20012;-69
2021/12/20 05:54:51;;;;;;;8.98;2.70;;;5.60;99.90;;;;;;6156862;23;20013;-69
2021/12/20 05:57:18;;;;;;;6.28;2.95;;;5.60;99.90;;;;;;6156830;23;20088;-69
2021/12/20 05:59:45;;;;;;;7.68;2.90;;;5.60;99.90;;;;;;6156745;23;20017;-69
2021/12/20 06:02:11;;;;;;;6.22;2.63;;;5.60;99.90;;;;;;6156650;23;20013;-69
2021/12/20 06:04:38;;;;;;;4.93;2.40;;;5.60;99.90;;;;;;6156736;23;20009;-69
2021/12/20 06:07:05;;;;;;;5.30;2.47;;;5.60;99.90;;;;;;6156971;23;20006;-69
2021/12/20 06:09:32;;;;;;;9.85;3.10;;;5.60;99.90;;;;;;6156672;23;20001;-69
2021/12/20 06:11:59;;;;;;;5.00;2.35;;;5.60;99.90;;;;;;6155160;23;20044;-69
2021/12/20 06:14:27;;;;;;;6.40;2.15;;;5.60;99.90;;;;;;6155533;23;20486;-70
2021/12/20 06:16:57;;;;;;;2.97;1.92;;;5.60;99.90;;;;;;6156461;23;20021;-70
2021/12/20 06:19:25;;;;;;;9.18;2.85;;;5.60;99.90;;;;;;6156579;23;20009;-70
2021/12/20 06:21:53;;;;;;;5.18;2.88;;;5.60;99.90;;;;;;6156442;23;20380;-70
2021/12/20 06:24:20;;;;;;;5.28;2.70;;;5.60;99.90;;;;;;6155123;23;20451;-70
2021/12/20 06:26:47;;;;;;;8.27;2.83;;;5.60;99.90;;;;;;6156952;23;20009;-69
2021/12/20 06:29:14;;;;;;;6.03;2.85;;;5.60;99.90;;;;;;6156070;23;20508;-68
2021/12/20 06:31:41;;;;;;;5.80;2.33;;;5.70;99.90;;;;;;6155050;23;20039;-68
2021/12/20 06:34:08;;;;;;;4.18;2.33;;;5.70;99.90;;;;;;6156298;23;20017;-69
2021/12/20 06:36:44;;;;;;;6.25;2.53;;;5.70;99.90;;;;;;6156418;23;20006;-70
2021/12/20 06:39:10;;;;;;;5.25;2.58;;;5.70;99.90;;;;;;6156275;23;20017;-70
2021/12/20 06:41:37;;;;;;;5.95;2.22;;;5.70;99.90;;;;;;6156223;23;20332;-70
2021/12/20 06:44:04;;;;;;;5.95;2.92;;;5.80;99.90;;;;;;6156610;23;20005;-69
2021/12/20 06:46:37;;;;;;;6.25;3.50;;;5.80;99.90;;;;;;6156660;23;20010;-70
2021/12/20 06:49:09;;;;;;;10.98;3.67;;;5.90;99.90;;;;;;6156346;23;20052;-70
2021/12/20 06:51:42;;;;;;;6.00;2.88;;;5.90;99.90;;;;;;6156013;23;20076;-70
2021/12/20 06:54:10;;;;;;;10.40;3.67;;;6.00;99.90;;;;;;6156160;23;20020;-70
2021/12/20 06:56:37;;;;;;;7.93;3.28;;;6.00;99.90;;;;;;6156067;23;20006;-70
2021/12/20 06:59:04;;;;;;;10.52;4.05;;;6.10;99.90;;;;;;6155789;23;20040;-70
2021/12/20 07:01:34;;;;;;;11.00;3.90;;;6.10;99.90;;;;;;6156107;23;20016;-70
2021/12/20 07:04:02;;;;;;;8.23;3.40;;;6.10;99.90;;;;;;6154756;23;20024;-70
2021/12/20 07:06:34;;;;;;;11.18;4.28;;;6.10;99.90;;;;;;6156541;23;20009;-70
2021/12/20 07:09:00;;;;;;;8.10;3.40;;;6.20;99.90;;;;;;6156152;23;20021;-70
2021/12/20 07:11:30;;;;;;;12.82;4.47;;;6.20;99.90;;;;;;6156118;23;20001;-70
2021/12/20 07:14:03;;;;;;;11.02;3.80;;;6.40;99.90;;;;;;6156058;23;20006;-70
2021/12/20 07:16:32;;;;;;;7.90;3.05;;;6.40;99.90;;;;;;6156247;23;20432;-70
2021/12/20 07:19:01;;;;;;;12.93;4.22;;;6.50;99.90;;;;;;6156008;23;20006;-70
2021/12/20 07:21:28;;;;;;;11.60;4.45;;;6.60;99.90;;;;;;6156263;23;20010;-70
2021/12/20 07:24:04;;;;;;;10.90;4.15;;;6.70;99.90;;;;;;6156098;23;20088;-70
2021/12/20 07:26:31;;;;;;;7.63;3.85;;;6.80;99.90;;;;;;6129844;23;20361;-72
2021/12/20 07:28:57;;;;;;;13.82;3.67;;;6.80;99.90;;;;;;6156006;23;20021;-71
2021/12/20 07:31:24;;;;;;;9.18;3.70;;;6.90;99.90;;;;;;6156291;23;20009;-62
2021/12/20 07:33:51;;;;;;;10.02;3.30;;;7.10;99.90;;;;;;6156002;23;20009;-62
2021/12/20 07:36:20;;;;;;;14.10;4.13;;;7.10;99.90;;;;;;6155932;23;20001;-62
2021/12/20 07:38:56;;;;;;;7.40;3.60;;;7.20;99.90;;;;;;6155964;23;20020;-62
2021/12/20 07:41:23;;;;;;;7.35;3.08;;;7.30;99.90;;;;;;6155930;23;20018;-62
2021/12/20 07:43:53;;;;;;;7.78;3.20;;;7.40;99.90;;;;;;6129870;23;20017;-62
2021/12/20 07:46:29;;;;;;;8.60;3.03;;;7.60;99.90;;;;;;6156415;23;20323;-62
2021/12/20 07:49:05;;;;;;;12.70;3.25;;;7.60;99.90;;;;;;6129284;23;20040;-62
2021/12/20 07:51:35;;;;;;;8.63;3.45;;;7.70;99.90;;;;;;6156374;23;20002;-62
2021/12/20 07:54:07;;;;;;;6.03;3.05;;;7.80;99.90;;;;;;6156000;23;20037;-62
2021/12/20 07:56:39;;;;;;;10.98;3.63;;;7.90;99.90;;;;;;6156671;23;20072;-62
2021/12/20 07:59:07;;;;;;;11.52;4.32;;;8.00;99.90;;;;;;6157710;23;20093;-62
2021/12/20 08:01:37;;;;;;;15.98;3.58;;;8.10;99.90;;;;;;6157930;23;20056;-63
2021/12/20 08:04:06;;;;;;;8.52;4.00;;;8.20;99.90;;;;;;6157835;23;20029;-62
2021/12/20 08:06:42;;;;;;;11.35;4.10;;;8.30;99.90;;;;;;6157892;23;20009;-62
2021/12/20 08:09:11;;;;;;;8.02;3.55;;;8.30;99.90;;;;;;6156333;23;20005;-62
2021/12/20 08:11:46;;;;;;;11.48;3.50;;;8.40;99.90;;;;;;6157866;23;20486;-62
2021/12/20 08:14:15;;;;;;;7.35;3.10;;;8.40;99.90;;;;;;6156110;23;20036;-63
2021/12/20 08:16:42;;;;;;;7.00;3.10;;;8.40;99.90;;;;;;6157827;23;20017;-62
2021/12/20 08:19:16;;;;;;;7.35;3.17;;;8.50;99.90;;;;;;6157572;23;20020;-62
2021/12/20 08:21:54;;;;;;;10.38;3.35;;;8.60;99.90;;;;;;6157767;23;20052;-62
2021/12/20 08:24:33;;;;;;;7.40;3.80;;;8.60;99.90;;;;;;6157749;23;20063;-62
2021/12/20 08:27:00;;;;;;;6.13;2.63;;;8.70;99.90;;;;;;6157681;23;20516;-62
2021/12/20 08:29:30;;;;;;;4.80;2.35;;;8.80;99.90;;;;;;6157433;23;20041;-62
2021/12/20 08:32:02;;;;;;;6.07;2.17;;;9.00;99.90;;;;;;6157938;23;20018;-62
2021/12/20 08:34:35;;;;;;;4.63;2.40;;;9.00;99.90;;;;;;6125799;23;20014;-63
2021/12/20 08:37:05;;;;;;;4.35;2.00;;;9.00;99.90;;;;;;6126039;23;20010;-62
2021/12/20 08:39:33;;;;;;;4.15;2.08;;;9.10;99.90;;;;;;6125846;23;20038;-62
2021/12/20 08:42:03;;;;;;;5.07;2.33;;;9.10;99.90;;;;;;6125363;23;20471;-62
2021/12/20 08:44:31;;;;;;;8.10;2.50;;;9.20;99.90;;;;;;6126177;23;20010;-62
2021/12/20 08:46:59;;;;;;;3.65;1.85;;;9.30;99.90;;;;;;6125511;23;20041;-62
2021/12/20 08:49:27;;;;;;;4.45;2.08;;;9.40;99.90;;;;;;6125601;23;20010;-63
2021/12/20 08:52:00;;;;;;;2.92;1.45;;;9.50;99.90;;;;;;6125504;23;20340;-62
2021/12/20 08:54:31;;;;;;;2.83;1.27;;;9.70;99.90;;;;;;6125405;23;20505;-62
2021/12/20 08:56:59;;;;;;;6.65;1.77;;;9.80;99.90;;;;;;6125418;23;20078;-62
2021/12/20 08:59:26;;;;;;;3.35;1.58;;;9.80;99.90;;;;;;6125158;23;20006;-62
2021/12/20 09:01:57;;;;;;;3.42;1.30;;;9.90;99.90;;;;;;6125539;23;20037;-62
2021/12/20 09:04:24;;;;;;;3.25;1.38;;;10.00;99.90;;;;;;6055300;23;20024;-63
2021/12/20 09:07:00;;;;;;;3.83;1.48;;;10.00;99.90;;;;;;6157086;23;20317;-63
2021/12/20 09:09:27;;;;;;;2.80;1.48;;;10.10;99.90;;;;;;6131217;23;20336;-62
2021/12/20 09:11:54;;;;;;;5.38;1.52;;;10.20;99.90;;;;;;6157582;23;20020;-62
2021/12/20 09:14:25;;;;;;;1.80;1.50;;;10.20;99.90;;;;;;6157245;23;20077;-62
2021/12/20 09:16:54;;;;;;;3.95;1.48;;;10.30;99.90;;;;;;6157111;23;20076;-62
2021/12/20 09:19:20;;;;;;;2.72;1.60;;;10.30;99.90;;;;;;6157465;23;20010;-62
2021/12/20 09:21:50;;;;;;;5.10;1.80;;;10.40;99.90;;;;;;6157132;23;20092;-62
2021/12/20 09:24:16;;;;;;;2.42;1.42;;;10.50;99.90;;;;;;6157225;23;20446;-62
2021/12/20 09:26:46;;;;;;;4.47;1.20;;;10.60;99.90;;;;;;6157234;23;20081;-62
2021/12/20 09:29:19;;;;;;;4.60;1.42;;;10.60;99.90;;;;;;6156513;23;20068;-63
2021/12/20 09:31:46;;;;;;;2.50;1.10;;;10.60;99.90;;;;;;6157458;23;20076;-62
2021/12/20 09:34:24;;;;;;;4.28;2.00;;;10.60;99.90;;;;;;6156960;23;20343;-62
2021/12/20 09:36:54;;;;;;;2.88;1.85;;;10.80;99.90;;;;;;6156873;23;20002;-63
2021/12/20 09:39:22;;;;;;;2.42;1.30;;;10.80;99.90;;;;;;6156922;23;20006;-62
2021/12/20 09:44:23;;;;;;;3.90;1.10;;;10.90;99.90;;;;;;6157129;23;20025;-62
2021/12/20 09:46:51;;;;;;;4.00;1.58;;;11.00;99.90;;;;;;6157156;23;20077;-63
2021/12/20 09:49:20;;;;;;;2.63;1.35;;;11.00;99.90;;;;;;6157133;23;20032;-62
2021/12/20 09:51:55;;;;;;;2.35;1.45;;;10.90;99.90;;;;;;6157722;23;20006;-63
2021/12/20 09:54:21;;;;;;;1.98;1.20;;;11.00;99.90;;;;;;6156938;23;20374;-62
2021/12/20 09:56:49;;;;;;;2.58;1.08;;;11.00;99.90;;;;;;6157465;23;19997;-62
2021/12/20 09:59:22;;;;;;;2.92;1.23;;;11.10;99.90;;;;;;6156583;23;20017;-62
2021/12/20 10:01:50;;;;;;;2.50;1.50;;;11.10;99.90;;;;;;6156505;23;20080;-63
2021/12/20 10:04:18;;;;;;;4.80;1.42;;;11.10;99.90;;;;;;6155669;23;20391;-63
2021/12/20 10:06:45;;;;;;;6.57;1.40;;;11.10;99.90;;;;;;6157046;23;20107;-62
2021/12/20 10:09:15;;;;;;;6.05;1.50;;;11.20;99.90;;;;;;6156951;23;20406;-63
2021/12/20 10:11:44;;;;;;;4.30;1.50;;;11.20;99.90;;;;;;6156602;23;20009;-63
2021/12/20 10:14:16;;;;;;;2.47;1.30;;;11.30;99.90;;;;;;6156661;23;20089;-62
2021/12/20 10:16:43;;;;;;;3.38;1.85;;;11.30;99.90;;;;;;6156580;23;20006;-62
2021/12/20 10:19:31;;;;;;;3.03;1.30;;;11.40;99.90;;;;;;6129733;23;20117;-62
2021/12/20 10:22:01;;;;;;;2.67;1.23;;;11.40;99.90;;;;;;6156559;23;20013;-62
2021/12/20 10:24:34;;;;;;;4.35;1.55;;;11.50;99.90;;;;;;6156851;23;20084;-63
2021/12/20 10:27:01;;;;;;;2.95;1.50;;;11.50;99.90;;;;;;6156648;23;20044;-62
2021/12/20 10:29:31;;;;;;;3.42;1.75;;;11.50;99.90;;;;;;6156014;23;20018;-63
2021/12/20 10:32:00;;;;;;;3.72;1.20;;;11.60;99.90;;;;;;6156383;23;20001;-63
2021/12/20 10:34:35;;;;;;;2.25;1.38;;;11.70;99.90;;;;;;6156822;23;20105;-62
2021/12/20 10:37:05;;;;;;;1.52;1.05;;;11.70;99.90;;;;;;6156808;23;20013;-62
2021/12/20 10:39:47;;;;;;;8.35;1.27;;;11.70;99.90;;;;;;6156423;23;20013;-62
2021/12/20 10:42:18;;;;;;;2.83;1.38;;;11.70;99.90;;;;;;6156494;23;20013;-62
2021/12/20 10:45:19;;;;;;;1.95;1.05;;;11.70;99.90;;;;;;6156336;23;20012;-62
2021/12/20 10:48:07;;;;;;;3.67;1.35;;;11.80;99.90;;;;;;6156760;23;20084;-62
2021/12/20 10:50:42;;;;;;;2.85;1.20;;;11.90;99.90;;;;;;6156495;23;20313;-62
2021/12/20 10:53:22;;;;;;;3.17;1.40;;;11.90;99.90;;;;;;6156134;23;20044;-63
2021/12/20 10:56:00;;;;;;;4.03;1.85;;;11.90;99.90;;;;;;6156073;23;20037;-63
2021/12/20 10:58:41;;;;;;;3.90;1.27;;;11.90;99.90;;;;;;6129999;23;20336;-62
2021/12/20 11:04:23;;;;;;;3.83;1.67;;;12.00;99.90;;;;;;6156552;23;20052;-62
2021/12/20 11:09:46;;;;;;;3.97;1.80;;;12.00;99.90;;;;;;6156560;23;20032;-62
2021/12/20 11:12:26;;;;;;;4.82;1.65;;;11.90;99.90;;;;;;6154999;23;20005;-62
2021/12/20 11:15:07;;;;;;;;;;;;;;;;;;;;;
2021/12/20 11:17:36;;;;;;;3.50;2.10;;;12.20;99.90;;;;;;6156165;23;20020;-63
2021/12/20 11:20:04;;;;;;;7.47;2.33;;;12.20;99.90;;;;;;6156335;23;20080;-62
2021/12/20 11:22:32;;;;;;;3.40;1.80;;;12.20;99.90;;;;;;6154165;23;20016;-62
2021/12/20 11:25:06;;;;;;;5.78;2.28;;;12.30;99.90;;;;;;6156413;23;20010;-62
2021/12/20 11:27:34;;;;;;;3.65;1.85;;;12.40;99.90;;;;;;6156496;23;20316;-62
2021/12/20 11:30:15;;;;;;;4.93;2.10;;;12.40;99.90;;;;;;6155777;23;20025;-62
2021/12/20 11:32:43;;;;;;;4.80;1.90;;;12.40;99.90;;;;;;6157855;23;20010;-62
2021/12/20 11:35:10;;;;;;;4.97;2.20;;;12.40;99.90;;;;;;6158058;23;19997;-62
2021/12/20 11:37:37;;;;;;;5.75;1.90;;;12.40;99.90;;;;;;6158168;23;20080;-63
2021/12/20 11:40:07;;;;;;;3.05;1.95;;;12.50;99.90;;;;;;6156475;23;20064;-62
2021/12/20 11:42:34;;;;;;;3.88;1.67;;;12.50;99.90;;;;;;6158203;23;20009;-63
2021/12/20 11:45:04;;;;;;;13.45;2.35;;;12.40;99.90;;;;;;6158043;23;20006;-63
2021/12/20 11:47:53;;;;;;;5.32;2.30;;;12.50;99.90;;;;;;6157989;23;20001;-62
2021/12/20 11:50:22;;;;;;;5.97;2.22;;;12.50;99.90;;;;;;6157861;23;20010;-63
2021/12/20 11:52:52;;;;;;;4.50;2.17;;;12.60;99.90;;;;;;6158025;23;19997;-62
2021/12/20 11:55:23;;;;;;;6.65;2.55;;;12.60;99.90;;;;;;6158081;23;20037;-62
2021/12/20 11:57:59;;;;;;;4.18;2.22;;;12.60;99.90;;;;;;6158299;23;20012;-62
2021/12/20 12:00:49;;;;;;;8.93;2.35;;;12.60;99.90;;;;;;6157877;23;20020;-63
2021/12/20 12:03:24;;;;;;;6.20;1.98;;;12.70;99.90;;;;;;6157969;23;20001;-62
2021/12/20 12:05:52;;;;;;;4.82;2.08;;;12.80;99.90;;;;;;6157904;23;20009;-62
2021/12/20 12:08:23;;;;;;;4.82;2.30;;;12.80;99.90;;;;;;6157857;23;20005;-62
2021/12/20 12:10:56;;;;;;;6.57;2.40;;;12.90;99.90;;;;;;6157809;23;20005;-62
2021/12/20 12:13:26;;;;;;;4.55;1.98;;;12.90;99.90;;;;;;6156408;23;20001;-63
2021/12/20 12:16:05;;;;;;;6.15;2.40;;;12.90;99.90;;;;;;6157813;23;20005;-62
2021/12/20 12:18:51;;;;;;;2.15;1.80;;;13.00;99.90;;;;;;6157755;23;20428;-63
2021/12/20 12:21:39;;;;;;;6.93;2.42;;;12.90;99.90;;;;;;6156060;23;20017;-62
2021/12/20 12:24:15;;;;;;;4.72;2.15;;;12.90;99.90;;;;;;6156158;23;20041;-62
2021/12/20 12:26:49;;;;;;;7.53;2.15;;;13.00;99.90;;;;;;6158144;23;20100;-62
2021/12/20 12:29:23;;;;;;;5.68;2.75;;;12.90;99.90;;;;;;6157613;23;20021;-63
2021/12/20 12:31:57;;;;;;;5.60;2.53;;;12.90;99.90;;;;;;6158009;23;20015;-63
2021/12/20 12:34:45;;;;;;;5.43;2.42;;;12.90;99.90;;;;;;6157964;23;20041;-63
2021/12/20 12:37:38;;;;;;;5.05;2.10;;;12.90;99.90;;;;;;6157972;23;20013;-62
2021/12/20 12:40:45;;;;;;;10.88;2.67;;;12.90;99.90;;;;;;6157849;23;20340;-61
2021/12/20 12:43:16;;;;;;;11.32;2.95;;;13.10;99.90;;;;;;6157165;23;20503;-62
2021/12/20 12:45:56;;;;;;;5.63;2.90;;;13.00;99.90;;;;;;6157317;23;20025;-62
2021/12/20 12:48:49;;;;;;;4.80;2.08;;;13.10;99.90;;;;;;6157941;23;20487;-62
2021/12/20 12:51:38;;;;;;;5.53;2.13;;;13.20;99.90;;;;;;6157439;23;20006;-62
2021/12/20 12:54:31;;;;;;;6.07;2.50;;;13.20;99.90;;;;;;6157348;23;20006;-62
2021/12/20 12:57:15;;;;;;;5.38;2.60;;;13.10;99.90;;;;;;6156315;23;20466;-62
2021/12/20 12:59:58;;;;;;;5.68;2.70;;;13.20;99.90;;;;;;6157246;23;20040;-62
2021/12/20 13:02:37;;;;;;;4.53;3.03;;;13.20;99.90;;;;;;6157607;23;20024;-62
2021/12/20 13:05:06;;;;;;;4.68;3.03;;;13.20;99.90;;;;;;6157341;23;20002;-62
2021/12/20 13:07:42;;;;;;;6.15;1.98;;;13.10;99.90;;;;;;6157747;23;20363;-63
2021/12/20 13:10:39;;;;;;;21.23;3.35;;;13.10;99.90;;;;;;6157540;23;20353;-63
2021/12/20 13:13:26;;;;;;;6.40;3.40;;;13.10;99.90;;;;;;6157249;23;20435;-63
2021/12/20 13:16:03;;;;;;;11.43;3.35;;;13.00;99.90;;;;;;6157264;23;20393;-62
2021/12/20 13:18:51;;;;;;;6.97;3.00;;;12.90;99.90;;;;;;6157591;23;20081;-62
2021/12/20 13:21:25;;;;;;;6.63;3.28;;;12.90;99.90;;;;;;6157495;23;20399;-62
2021/12/20 13:23:52;;;;;;;5.23;3.23;;;12.90;99.90;;;;;;6157025;23;20340;-63
2021/12/20 13:26:21;;;;;;;4.55;2.85;;;12.90;99.90;;;;;;6155597;23;20017;-62
2021/12/20 13:28:51;;;;;;;6.15;2.58;;;13.00;99.90;;;;;;6157015;23;20041;-63
2021/12/20 13:31:26;;;;;;;9.55;4.40;;;13.00;99.90;;;;;;6157067;23;20440;-62
2021/12/20 13:34:03;;;;;;;6.95;4.03;;;13.00;99.90;;;;;;6157304;23;20084;-62